Time;durP1;ratioP1;P1;durP2;ratioP2;P2;SDS_P1;SDS_P2;PMS_P1;PMS_P2;Temp;Humidity;BMP_temperature;BMP_pressure;BME280_temperature;BME280_humidity;BME280_pressure;Samples;Min_cycle;Max_cycle;Signal;HPM_P1;HPM_P2
2023/12/08 00:03:50;;;;;;;10.35;3.90;;;;;;;1.97;100.00;101207.25;5993656;23;20180;-80
2023/12/08 00:06:23;;;;;;;12.60;7.40;;;;;;;1.96;100.00;101205.56;6091958;23;20169;-79
2023/12/08 11:11:49;;;;;;;8.45;3.88;;;;;;;2.09;100.00;100741.63;6053519;23;20160;-80
2023/12/08 11:14:32;;;;;;;6.55;3.83;;;;;;;2.08;100.00;100742.63;6053117;23;20184;-81
2023/12/08 11:17:06;;;;;;;11.35;4.70;;;;;;;1.97;100.00;100736.69;6053172;23;20251;-81
2023/12/08 11:19:36;;;;;;;5.18;3.28;;;;;;;1.97;100.00;100737.53;6053205;23;20176;-80
2023/12/08 11:22:06;;;;;;;3.30;3.00;;;;;;;1.90;100.00;100740.94;6029716;23;20197;-80
2023/12/08 11:24:37;;;;;;;4.82;4.35;;;;;;;2.03;100.00;100736.91;6051882;23;20177;-80
2023/12/08 11:27:16;;;;;;;12.48;6.72;;;;;;;2.01;100.00;100724.72;6029378;23;20172;-81
2023/12/08 11:29:51;;;;;;;5.55;3.95;;;;;;;1.99;100.00;100724.84;6058524;23;20201;-80
2023/12/08 11:32:27;;;;;;;6.03;4.47;;;;;;;2.03;100.00;100715.53;6160572;23;20185;-80
2023/12/08 11:35:01;;;;;;;7.20;4.53;;;;;;;2.03;100.00;100707.53;6206702;23;20196;-81
2023/12/08 11:42:10;;;;;;;5.13;3.60;;;;;;;2.08;100.00;100715.13;6199400;23;20199;-81
2023/12/08 11:44:42;;;;;;;5.97;2.47;;;;;;;2.12;100.00;100698.66;6209017;23;20252;-80
2023/12/08 11:55:20;;;;;;;5.35;4.15;;;;;;;2.22;100.00;100719.09;6210176;23;20165;-80
2023/12/08 11:58:11;;;;;;;3.60;3.08;;;;;;;2.23;100.00;100710.09;6209780;23;20150;-79
2023/12/08 12:00:41;;;;;;;8.85;4.38;;;;;;;2.23;100.00;100699.41;6204669;23;20154;-81
2023/12/08 12:03:11;;;;;;;5.22;3.88;;;;;;;2.17;100.00;100708.88;6204536;23;20182;-80
2023/12/08 12:08:40;;;;;;;10.35;5.95;;;;;;;2.23;100.00;100702.09;6202340;23;20176;-82
2023/12/08 12:11:10;;;;;;;13.18;6.85;;;;;;;2.08;100.00;100691.91;6176107;23;20161;-82
2023/12/08 12:13:43;;;;;;;5.88;4.00;;;;;;;2.17;100.00;100693.69;6199375;23;20165;-82
2023/12/08 12:16:16;;;;;;;6.70;5.72;;;;;;;2.28;100.00;100707.78;6174287;23;20188;-82
2023/12/08 12:22:24;;;;;;;12.98;4.90;;;;;;;2.18;100.00;100713.19;6193500;23;20193;-82
2023/12/08 12:24:58;;;;;;;8.10;3.55;;;;;;;2.32;100.00;100703.81;6195473;23;20209;-83
2023/12/08 12:27:28;;;;;;;9.35;6.30;;;;;;;2.32;100.00;100706.50;6198820;23;20243;-82
2023/12/08 12:29:59;;;;;;;8.95;4.90;;;;;;;2.50;100.00;100718.00;6200725;23;20170;-82
2023/12/08 12:32:50;;;;;;;5.60;3.78;;;;;;;2.35;100.00;100714.19;6199347;23;20189;-83
2023/12/08 12:35:23;;;;;;;9.23;4.85;;;;;;;2.25;100.00;100708.09;6172695;23;20184;-81
2023/12/08 12:41:24;;;;;;;7.30;5.25;;;;;;;2.49;99.90;100700.28;6161339;23;20227;-83
2023/12/08 12:48:42;;;;;;;12.75;5.85;;;;;;;2.50;100.00;100685.94;6199098;23;20172;-83
2023/12/08 13:09:21;;;;;;;7.07;3.55;;;;;;;2.48;100.00;100667.41;6202094;23;20218;-80
2023/12/08 13:12:53;;;;;;;4.60;4.20;;;;;;;2.31;100.00;100670.09;6194965;23;20705;-80
2023/12/08 13:15:47;;;;;;;5.28;4.00;;;;;;;2.26;100.00;100673.22;6187014;23;20153;-79
2023/12/08 13:18:17;;;;;;;9.90;4.32;;;;;;;2.22;100.00;100673.69;6188330;23;20155;-81
2023/12/08 13:21:58;;;;;;;5.78;2.70;;;;;;;2.18;100.00;100665.97;6213864;23;20180;-80
2023/12/08 13:25:16;;;;;;;11.15;4.10;;;;;;;2.26;100.00;100662.56;6208113;23;20189;-83
2023/12/08 13:27:46;;;;;;;10.80;5.40;;;;;;;2.27;100.00;100668.75;6201293;23;20196;-82
2023/12/08 13:30:15;;;;;;;15.68;7.75;;;;;;;2.17;100.00;100658.97;6201361;23;20182;-82
2023/12/08 13:33:26;;;;;;;8.23;4.13;;;;;;;2.13;100.00;100662.13;6200117;23;20185;-82
2023/12/08 13:36:46;;;;;;;6.28;3.80;;;;;;;2.04;100.00;100663.00;6173554;23;20168;-81
2023/12/08 13:39:34;;;;;;;8.13;6.20;;;;;;;2.14;100.00;100658.44;6198577;23;20183;-81
2023/12/08 13:42:05;;;;;;;8.05;3.33;;;;;;;2.12;100.00;100666.63;6201308;23;20746;-82
2023/12/08 13:45:02;;;;;;;6.60;3.47;;;;;;;2.14;100.00;100666.44;6148813;23;20182;-83
2023/12/08 13:48:38;;;;;;;5.75;3.80;;;;;;;2.17;100.00;100679.50;6199694;23;20237;-82
2023/12/08 13:52:17;;;;;;;5.63;2.75;;;;;;;2.12;100.00;100671.13;6173642;23;20197;-82
2023/12/08 14:19:05;;;;;;;7.72;5.63;;;;;;;1.92;100.00;100659.75;6080779;23;20262;-81
2023/12/08 14:21:35;;;;;;;7.40;5.72;;;;;;;1.99;100.00;100658.13;6108463;23;20199;-82
2023/12/08 14:27:27;;;;;;;6.63;5.85;;;;;;;2.11;100.00;100669.44;6115355;23;20234;-83
2023/12/08 14:29:56;;;;;;;4.07;3.67;;;;;;;2.07;100.00;100663.56;6110497;23;20175;-82
2023/12/08 14:32:26;;;;;;;10.02;5.18;;;;;;;1.96;100.00;100655.78;6111411;23;20191;-83
2023/12/08 14:34:57;;;;;;;10.27;4.25;;;;;;;1.97;100.00;100653.94;6109890;23;20175;-82
2023/12/08 14:37:45;;;;;;;3.85;3.42;;;;;;;1.93;100.00;100653.44;6151071;23;20200;-82
2023/12/08 14:40:32;;;;;;;7.95;4.45;;;;;;;1.88;100.00;100647.72;6176382;23;20165;-82
2023/12/08 14:43:06;;;;;;;7.70;5.13;;;;;;;1.84;100.00;100651.66;6202204;23;20192;-83
2023/12/08 14:46:05;;;;;;;4.35;3.22;;;;;;;1.83;100.00;100647.31;6178043;23;20170;-81
2023/12/08 14:48:35;;;;;;;12.57;7.03;;;;;;;1.88;100.00;100647.72;6206497;23;20165;-83
2023/12/08 14:51:08;;;;;;;5.35;4.00;;;;;;;1.99;100.00;100644.78;6205482;23;20177;-82
2023/12/08 14:57:48;;;;;;;11.82;4.28;;;;;;;1.93;100.00;100645.41;6175507;23;20169;-82
2023/12/08 15:00:18;;;;;;;19.33;3.22;;;;;;;1.88;100.00;100655.72;6201760;23;20169;-82
2023/12/08 15:02:47;;;;;;;6.32;4.15;;;;;;;1.88;100.00;100653.03;6201719;23;20181;-81
2023/12/08 15:05:16;;;;;;;7.05;4.57;;;;;;;1.91;100.00;100657.22;6201776;23;20166;-81
2023/12/08 15:07:49;;;;;;;8.80;3.80;;;;;;;2.02;100.00;100657.84;6174562;23;20166;-84
2023/12/08 15:10:28;;;;;;;9.40;5.38;;;;;;;2.01;100.00;100653.50;6200646;23;20191;-82
2023/12/08 15:12:57;;;;;;;5.72;4.25;;;;;;;2.02;100.00;100649.84;6202437;23;20244;-82
2023/12/08 15:15:26;;;;;;;9.07;4.78;;;;;;;2.03;100.00;100656.81;6176235;23;20174;-83
2023/12/08 15:18:11;;;;;;;6.43;5.55;;;;;;;1.98;100.00;100648.47;6203584;23;20154;-82
2023/12/08 15:24:48;;;;;;;5.05;3.10;;;;;;;2.12;100.00;100649.75;6173589;23;20169;-82
2023/12/08 15:27:24;;;;;;;11.85;6.95;;;;;;;2.11;100.00;100648.06;6173711;23;20196;-82
2023/12/08 15:29:54;;;;;;;3.28;2.97;;;;;;;2.12;100.00;100655.94;6201115;23;20181;-81
2023/12/08 15:32:43;;;;;;;8.07;5.30;;;;;;;2.05;100.00;100648.69;6200101;23;20196;-83
2023/12/08 15:35:13;;;;;;;5.60;5.00;;;;;;;2.06;100.00;100651.19;6173869;23;20180;-81
2023/12/08 15:37:42;;;;;;;14.15;4.55;;;;;;;2.26;100.00;100659.03;6202137;23;20154;-81
2023/12/08 15:40:13;;;;;;;8.23;3.58;;;;;;;2.18;100.00;100649.97;6201631;23;20158;-82
2023/12/08 15:42:46;;;;;;;7.60;4.28;;;;;;;2.08;100.00;100649.19;6174528;23;20192;-81
2023/12/08 15:45:15;;;;;;;10.52;3.78;;;;;;;2.10;100.00;100649.91;6199716;23;20146;-83
2023/12/08 15:48:06;;;;;;;4.30;3.28;;;;;;;2.11;100.00;100648.91;6174230;23;20173;-81
2023/12/08 15:50:39;;;;;;;6.70;5.88;;;;;;;2.11;100.00;100648.91;6174302;23;20208;-82
2023/12/08 15:53:09;;;;;;;5.75;4.85;;;;;;;2.06;100.00;100651.19;6196443;23;20192;-83
2023/12/08 15:55:43;;;;;;;12.63;6.28;;;;;;;2.12;100.00;100661.28;6195540;23;20158;-84
2023/12/08 15:58:16;;;;;;;8.80;5.00;;;;;;;2.18;100.00;100660.63;6169389;23;20168;-83
2023/12/08 16:00:47;;;;;;;7.25;4.93;;;;;;;2.07;100.00;100652.88;6169691;23;20168;-82
2023/12/08 16:03:16;;;;;;;3.22;2.40;;;;;;;2.03;100.00;100656.03;6195737;23;20509;-80
2023/12/08 16:05:46;;;;;;;10.32;5.60;;;;;;;2.11;100.00;100659.59;6197857;23;20162;-81
2023/12/08 16:08:15;;;;;;;8.20;4.18;;;;;;;2.07;100.00;100655.56;6199503;23;20152;-79
2023/12/08 16:10:52;;;;;;;7.00;3.90;;;;;;;2.02;100.00;100655.19;6204656;23;20247;-81
2023/12/08 16:13:29;;;;;;;7.65;5.68;;;;;;;1.98;100.00;100647.63;6207142;23;20181;-83
2023/12/08 16:15:58;;;;;;;6.85;4.05;;;;;;;1.93;100.00;100644.59;6206103;23;20208;-82
2023/12/08 16:18:30;;;;;;;7.47;4.80;;;;;;;1.92;100.00;100651.75;6171727;23;20224;-81
2023/12/08 16:21:00;;;;;;;10.93;3.97;;;;;;;2.01;100.00;100653.50;6202598;23;20157;-82
2023/12/08 16:23:30;;;;;;;9.98;4.65;;;;;;;1.95;100.00;100654.09;6202449;23;20150;-82
2023/12/08 16:26:02;;;;;;;7.57;3.83;;;;;;;1.92;100.00;100657.06;6197689;23;20166;-81
2023/12/08 16:28:31;;;;;;;10.18;6.57;;;;;;;1.96;100.00;100655.78;6199976;23;20154;-82
2023/12/08 16:31:01;;;;;;;6.80;4.65;;;;;;;2.06;100.00;100663.72;6195979;23;20189;-82
2023/12/08 16:33:32;;;;;;;9.25;4.60;;;;;;;1.97;100.00;100660.13;6193705;23;20666;-81
2023/12/08 16:36:01;;;;;;;11.75;5.38;;;;;;;1.99;100.00;100666.13;6193773;23;20146;-83
2023/12/08 16:38:31;;;;;;;8.38;3.95;;;;;;;2.09;100.00;100658.88;6193947;23;20154;-82
2023/12/08 16:41:03;;;;;;;5.93;3.53;;;;;;;1.92;100.00;100651.75;6195366;23;20169;-82
2023/12/08 16:43:33;;;;;;;12.52;6.60;;;;;;;2.07;100.00;100658.22;6195614;23;20157;-81
2023/12/08 16:46:02;;;;;;;5.70;5.28;;;;;;;2.06;100.00;100658.38;6201801;23;20161;-83
2023/12/08 16:48:31;;;;;;;4.53;3.90;;;;;;;2.10;100.00;100660.56;6207763;23;20185;-80
2023/12/08 16:51:01;;;;;;;8.18;3.55;;;;;;;2.12;100.00;100655.94;6183171;23;20201;-82
2023/12/08 16:53:31;;;;;;;5.93;4.68;;;;;;;2.06;100.00;100656.53;6173076;23;20161;-84
2023/12/08 16:56:02;;;;;;;6.60;4.15;;;;;;;1.97;100.00;100649.47;6193790;23;20150;-82
2023/12/08 16:58:31;;;;;;;5.03;4.43;;;;;;;2.05;100.00;100651.34;6197628;23;20150;-82
2023/12/08 17:01:00;;;;;;;11.35;7.25;;;;;;;1.91;100.00;100647.38;6180492;23;20160;-81
2023/12/08 17:03:30;;;;;;;5.22;4.15;;;;;;;1.97;100.00;100652.13;6210256;23;20146;-81
2023/12/08 17:09:24;;;;;;;11.25;4.50;;;;;;;2.00;100.00;100666.97;6184747;23;20149;-82
2023/12/08 17:12:09;;;;;;;7.32;5.65;;;;;;;2.02;100.00;100675.69;6202872;23;20200;-80
2023/12/08 17:14:48;;;;;;;6.95;5.57;;;;;;;2.02;100.00;100681.03;6173086;23;20165;-81
2023/12/08 17:17:36;;;;;;;9.73;4.88;;;;;;;2.07;100.00;100676.06;6196693;23;20165;-82
2023/12/08 17:36:38;;;;;;;5.85;4.18;;;;;;;1.98;100.00;100669.81;6026943;23;20201;-82
2023/12/08 17:48:36;;;;;;;10.38;5.47;;;;;;;2.04;100.00;100666.53;6115623;23;20199;-81
2023/12/08 17:51:21;;;;;;;9.50;5.88;;;;;;;2.01;100.00;100668.66;6156208;23;20194;-80
2023/12/08 17:54:49;;;;;;;12.57;6.25;;;;;;;1.95;100.00;100672.78;6196007;23;20499;-80
2023/12/08 18:08:40;;;;;;;4.53;4.00;;;;;;;1.98;100.00;100675.16;6185186;23;20173;-80
2023/12/08 18:12:16;;;;;;;7.97;5.93;;;;;;;2.00;100.00;100683.84;6171388;23;20272;-82
2023/12/08 18:16:22;;;;;;;6.13;5.00;;;;;;;1.84;100.00;100673.00;6197054;23;20678;-82
2023/12/08 18:23:22;;;;;;;7.43;5.15;;;;;;;1.82;100.00;100674.16;6137733;23;20187;-80
2023/12/08 18:29:56;;;;;;;6.05;4.95;;;;;;;1.79;100.00;100669.13;6195928;23;20689;-82
2023/12/08 18:32:26;;;;;;;7.72;4.70;;;;;;;1.81;100.00;100681.31;6194984;23;20253;-79
2023/12/08 18:34:55;;;;;;;5.50;4.45;;;;;;;1.85;100.00;100680.00;6197690;23;20177;-79
2023/12/08 18:38:31;;;;;;;8.57;5.00;;;;;;;1.83;100.00;100687.34;6203104;23;20261;-81
2023/12/08 18:41:49;;;;;;;13.20;4.97;;;;;;;1.93;100.00;100701.47;6200463;23;20272;-80
2023/12/08 18:44:19;;;;;;;5.70;4.40;;;;;;;1.93;100.00;100692.63;6150137;23;20161;-79
2023/12/08 18:46:52;;;;;;;5.88;4.57;;;;;;;1.90;100.00;100699.06;6201095;23;20170;-80
2023/12/08 18:49:21;;;;;;;5.80;4.15;;;;;;;2.14;100.00;100701.13;6200108;23;20325;-80
2023/12/08 18:55:03;;;;;;;8.93;4.05;;;;;;;1.92;100.00;100699.78;6194435;23;20177;-81
2023/12/08 18:57:34;;;;;;;9.93;5.55;;;;;;;1.91;100.00;100711.44;6195622;23;20157;-80
2023/12/08 19:00:05;;;;;;;6.95;4.72;;;;;;;2.01;100.00;100712.22;6200102;23;20150;-79
2023/12/08 19:02:38;;;;;;;7.65;5.57;;;;;;;1.98;100.00;100701.84;6171781;23;20249;-79
2023/12/08 19:05:17;;;;;;;;;;;;;;;;;;;;;
2023/12/08 19:08:05;;;;;;;4.95;3.35;;;;;;;1.84;100.00;100702.34;6170751;23;20185;-79
2023/12/08 19:45:57;;;;;;;6.43;4.88;;;;;;;2.23;100.00;100715.44;6191814;23;20228;-80
2023/12/08 19:48:47;;;;;;;6.65;3.92;;;;;;;2.13;100.00;100702.97;6197163;23;20154;-80
2023/12/08 19:51:59;;;;;;;16.20;7.88;;;;;;;2.23;100.00;100699.41;6171263;23;20186;-80
2023/12/08 19:54:30;;;;;;;8.07;6.07;;;;;;;2.18;100.00;100695.34;6172240;23;20172;-80
2023/12/08 19:57:00;;;;;;;7.82;4.13;;;;;;;1.95;100.00;100685.28;6197472;23;20185;-80
2023/12/08 19:59:30;;;;;;;9.30;4.95;;;;;;;2.03;100.00;100696.06;6194336;23;20153;-81
2023/12/08 20:01:59;;;;;;;6.25;5.57;;;;;;;1.96;100.00;100690.47;6194839;23;20177;-80
2023/12/08 20:04:28;;;;;;;9.40;7.65;;;;;;;1.97;100.00;100689.50;6193000;23;20180;-79
2023/12/08 20:06:59;;;;;;;9.35;6.70;;;;;;;2.15;100.00;100693.00;6194499;23;20615;-81
2023/12/08 20:17:57;;;;;;;10.63;6.57;;;;;;;2.03;100.00;100712.88;6193858;23;20173;-79
2023/12/08 20:54:27;;;;;;;5.10;4.10;;;;;;;2.24;100.00;100717.09;6007518;23;20193;-81
2023/12/08 21:25:31;;;;;;;8.27;5.28;;;;;;;2.05;100.00;100732.25;5076458;28;20553;-80
2023/12/08 21:28:01;;;;;;;7.65;4.60;;;;;;;2.03;100.00;100733.41;5088648;28;20201;-81
2023/12/08 21:30:30;;;;;;;11.98;5.88;;;;;;;2.13;100.00;100737.69;5095353;28;20171;-81
2023/12/08 21:33:03;;;;;;;9.45;7.18;;;;;;;2.10;100.00;100735.31;5085857;28;20674;-83
2023/12/08 21:40:49;;;;;;;7.40;4.97;;;;;;;2.25;100.00;100729.44;5060860;28;20283;-84
